Terminal Aerodrome Forecast
Issued by NWS

Home | Current Version | Previous Version | Text Only | Print | Product List | Glossary On
Versions: 1 2 3 4 5 6 7 8 9 10 11 12 13 14 15 16 17 18 19 20
000
FTUS43 KSGF 272300
TAFBBG
TAF
KBBG 272331Z 2800/2824 32012KT P6SM OVC008
      TEMPO 2801/2803 5SM -RASN SCT008 OVC020
     FM280600 35005KT P6SM BKN025
     FM280900 35004KT P6SM SCT150=

USA.gov is the U.S. government's official web portal to all federal, state and local government web resources and services.